createdAt,value
2022-10-02T00:02:06.914Z,14.78
2022-10-02T00:04:47.577Z,14.78
2022-10-02T00:07:18.327Z,14.79
2022-10-02T00:09:50.899Z,14.80
2022-10-02T00:12:22.112Z,14.75
2022-10-02T00:14:54.544Z,14.76
2022-10-02T00:17:29.842Z,14.78
2022-10-02T00:19:57.047Z,14.78
2022-10-02T00:22:47.119Z,14.82
2022-10-02T00:25:27.111Z,14.88
2022-10-02T00:28:29.151Z,14.89
2022-10-02T00:30:58.684Z,14.94
2022-10-02T00:33:31.498Z,14.96
2022-10-02T00:36:11.623Z,14.96
2022-10-02T00:38:47.767Z,14.97
2022-10-02T00:41:48.376Z,14.97
2022-10-02T00:44:44.240Z,14.97
2022-10-02T00:47:10.998Z,14.94
2022-10-02T00:49:58.746Z,14.89
2022-10-02T00:52:44.725Z,14.94
2022-10-02T00:55:46.569Z,14.89
2022-10-02T00:58:37.305Z,14.89
2022-10-02T01:01:12.056Z,14.86
2022-10-02T01:03:44.581Z,14.85
2022-10-02T01:06:12.080Z,14.84
2022-10-02T01:08:38.939Z,14.82
2022-10-02T01:11:06.944Z,14.80
2022-10-02T01:13:34.251Z,14.77
2022-10-02T01:16:01.617Z,14.74
2022-10-02T01:18:30.364Z,14.72
2022-10-02T01:21:04.168Z,14.69
2022-10-02T01:23:41.356Z,14.66
2022-10-02T01:26:08.229Z,14.62
2022-10-02T01:28:35.111Z,14.52
2022-10-02T01:31:16.419Z,14.58
2022-10-02T01:33:44.961Z,14.53
2022-10-02T01:36:13.856Z,14.49
2022-10-02T01:38:42.615Z,14.45
2022-10-02T01:41:12.690Z,14.42
2022-10-02T01:43:45.907Z,14.41
2022-10-02T01:46:27.680Z,14.39
2022-10-02T01:49:01.090Z,14.40
2022-10-02T01:51:52.465Z,14.36
2022-10-02T01:54:46.909Z,14.37
2022-10-02T01:57:29.461Z,14.32
2022-10-02T02:00:08.575Z,14.31
2022-10-02T02:02:59.746Z,14.28
2022-10-02T02:05:32.206Z,14.24
2022-10-02T02:08:09.515Z,14.17
2022-10-02T02:10:52.929Z,14.10
2022-10-02T02:13:51.722Z,14.04
2022-10-02T02:16:42.654Z,14.04
2022-10-02T02:19:26.125Z,14.00
2022-10-02T02:22:14.883Z,13.92
2022-10-02T02:24:52.511Z,13.90
2022-10-02T02:27:24.720Z,13.88
2022-10-02T02:29:55.570Z,13.86
2022-10-02T02:32:28.281Z,13.82
2022-10-02T02:35:02.051Z,13.81
2022-10-02T02:37:34.125Z,13.83
2022-10-02T02:40:03.489Z,13.90
2022-10-02T02:42:35.932Z,13.92
2022-10-02T02:45:14.717Z,13.88
2022-10-02T02:48:06.377Z,13.85
2022-10-02T02:50:41.468Z,13.91
2022-10-02T02:53:16.687Z,13.95
2022-10-02T02:55:58.409Z,13.96
2022-10-02T02:58:32.016Z,13.96
2022-10-02T03:00:59.127Z,13.96
2022-10-02T03:03:26.948Z,14.01
2022-10-02T03:06:15.500Z,14.00
2022-10-02T03:08:43.759Z,13.98
2022-10-02T03:11:22.106Z,14.00
2022-10-02T03:14:19.551Z,14.00
2022-10-02T03:17:04.796Z,13.97
2022-10-02T03:19:48.010Z,13.99
2022-10-02T03:22:56.133Z,13.95
2022-10-02T03:25:37.336Z,13.97
2022-10-02T03:28:12.393Z,13.97
2022-10-02T03:30:41.732Z,13.90
2022-10-02T03:33:10.676Z,13.91
2022-10-02T03:35:38.357Z,13.85
2022-10-02T03:38:07.991Z,13.82
2022-10-02T03:40:34.832Z,13.81
2022-10-02T03:43:01.895Z,13.74
2022-10-02T03:45:49.973Z,13.81
2022-10-02T03:48:17.104Z,13.83
2022-10-02T03:50:44.548Z,13.88
2022-10-02T03:53:17.545Z,13.83
2022-10-02T03:55:49.890Z,13.86
2022-10-02T03:58:18.699Z,13.88
2022-10-02T04:01:04.638Z,13.87
2022-10-02T04:03:37.684Z,13.79
2022-10-02T04:06:36.070Z,13.80
2022-10-02T04:09:12.092Z,13.76
2022-10-02T04:11:48.497Z,13.72
2022-10-02T04:14:46.120Z,13.70
2022-10-02T04:17:20.725Z,13.68
2022-10-02T04:19:59.642Z,13.63
2022-10-02T04:22:52.986Z,13.66
2022-10-02T04:25:27.956Z,13.57
2022-10-02T04:28:02.301Z,13.66
2022-10-02T04:30:30.344Z,13.64
2022-10-02T04:33:06.723Z,13.67
2022-10-02T04:35:44.929Z,13.70
2022-10-02T04:38:17.542Z,13.76
2022-10-02T04:41:04.573Z,13.72
2022-10-02T04:43:52.581Z,13.74
2022-10-02T04:46:37.872Z,13.76
2022-10-02T04:49:07.617Z,13.80
2022-10-02T04:52:29.814Z,13.82
2022-10-02T04:55:20.720Z,13.85
2022-10-02T04:58:24.385Z,13.90
2022-10-02T05:01:40.258Z,13.86
2022-10-02T05:04:34.668Z,13.95
2022-10-02T05:07:33.635Z,14.03
2022-10-02T05:10:37.296Z,14.09
2022-10-02T05:13:28.117Z,14.16
2022-10-02T05:16:12.931Z,14.21
2022-10-02T05:18:58.146Z,14.22
2022-10-02T05:21:34.250Z,14.27
2022-10-02T05:24:30.333Z,14.30
2022-10-02T05:27:15.825Z,14.30
2022-10-02T05:29:42.550Z,14.30
2022-10-02T05:32:22.564Z,14.33
2022-10-02T05:35:26.429Z,14.38
2022-10-02T05:37:53.167Z,14.43
2022-10-02T05:40:34.140Z,14.49
2022-10-02T05:43:22.644Z,14.46
2022-10-02T05:45:57.008Z,14.44
2022-10-02T05:48:38.629Z,14.40
2022-10-02T05:51:24.079Z,14.37
2022-10-02T05:53:58.185Z,14.39
2022-10-02T05:56:32.607Z,14.35
2022-10-02T05:59:08.491Z,14.34
2022-10-02T06:01:41.430Z,14.38
2022-10-02T06:04:33.942Z,14.31
2022-10-02T06:07:07.452Z,14.35
2022-10-02T06:09:40.631Z,14.35
2022-10-02T06:12:21.153Z,14.35
2022-10-02T06:15:17.188Z,14.37
2022-10-02T06:17:53.732Z,14.36
2022-10-02T06:21:01.739Z,14.33
2022-10-02T06:23:36.119Z,14.30
2022-10-02T06:26:07.363Z,14.25
2022-10-02T06:28:48.945Z,14.19
2022-10-02T06:31:41.729Z,14.22
2022-10-02T06:34:12.473Z,14.22
2022-10-02T06:36:48.684Z,14.35
2022-10-02T06:39:33.096Z,14.39
2022-10-02T06:42:08.674Z,14.52
2022-10-02T06:44:47.700Z,14.64
2022-10-02T06:47:17.587Z,14.72
2022-10-02T06:50:03.550Z,14.79
2022-10-02T06:52:43.879Z,14.88
2022-10-02T06:55:40.961Z,14.82
2022-10-02T06:58:35.162Z,14.73
2022-10-02T07:01:10.968Z,14.72
2022-10-02T07:03:47.285Z,14.75
2022-10-02T07:06:26.531Z,14.90
2022-10-02T07:09:14.046Z,15.07
2022-10-02T07:11:55.364Z,15.13
2022-10-02T07:14:28.149Z,15.20
2022-10-02T07:17:03.136Z,15.27
2022-10-02T07:19:45.065Z,15.33
2022-10-02T07:22:39.635Z,15.39
2022-10-02T07:25:07.292Z,15.47
2022-10-02T07:27:55.325Z,15.55
2022-10-02T07:30:22.323Z,15.58
2022-10-02T07:32:55.479Z,15.54
2022-10-02T07:35:59.428Z,15.51
2022-10-02T07:39:07.523Z,15.64
2022-10-02T07:41:59.561Z,15.71
2022-10-02T07:44:35.337Z,15.70
2022-10-02T07:47:26.827Z,15.75
2022-10-02T07:50:18.104Z,15.68
2022-10-02T07:52:50.669Z,15.76
2022-10-02T07:55:22.516Z,15.73
2022-10-02T07:58:22.000Z,15.76
2022-10-02T08:00:53.938Z,15.85
2022-10-02T08:03:28.252Z,15.86
2022-10-02T08:05:56.714Z,15.89
2022-10-02T08:08:30.074Z,15.97
2022-10-02T08:11:08.456Z,16.01
2022-10-02T08:13:46.115Z,16.05
2022-10-02T08:16:16.615Z,16.14
2022-10-02T08:18:48.889Z,16.15
2022-10-02T08:21:20.382Z,16.25
2022-10-02T08:23:59.808Z,16.22
2022-10-02T08:26:52.563Z,16.25
2022-10-02T08:29:41.696Z,16.36
2022-10-02T08:32:13.818Z,16.38
2022-10-02T08:34:42.138Z,16.38
2022-10-02T08:37:29.557Z,16.49
2022-10-02T08:40:17.971Z,16.63
2022-10-02T08:42:50.587Z,16.67
2022-10-02T08:45:35.390Z,16.78
2022-10-02T08:48:23.453Z,16.94
2022-10-02T08:51:11.542Z,17.01
2022-10-02T08:53:44.497Z,17.02
2022-10-02T08:56:38.939Z,17.02
2022-10-02T08:59:24.045Z,17.07
2022-10-02T09:02:28.276Z,17.10
2022-10-02T09:05:01.167Z,17.23
2022-10-02T09:08:16.056Z,17.44
2022-10-02T09:10:51.982Z,17.46
2022-10-02T09:13:33.670Z,17.47
2022-10-02T09:16:17.863Z,17.63
2022-10-02T09:19:03.088Z,17.87
2022-10-02T09:21:44.997Z,18.01
2022-10-02T09:24:43.627Z,18.03
2022-10-02T09:27:31.789Z,17.98
2022-10-02T09:30:21.644Z,18.16
2022-10-02T09:33:17.118Z,18.28
2022-10-02T09:35:49.934Z,18.24
2022-10-02T09:38:58.201Z,18.14
2022-10-02T09:42:09.224Z,18.07
2022-10-02T09:45:18.228Z,17.96
2022-10-02T09:48:32.081Z,18.10
2022-10-02T09:51:27.598Z,18.31
2022-10-02T09:54:21.548Z,18.23
2022-10-02T09:57:13.208Z,18.17
2022-10-02T09:59:48.706Z,18.31
2022-10-02T10:02:15.490Z,18.39
2022-10-02T10:05:09.004Z,18.46
2022-10-02T10:07:41.968Z,18.36
2022-10-02T10:10:53.509Z,18.31
2022-10-02T10:13:41.892Z,18.30
2022-10-02T10:16:34.193Z,18.54
2022-10-02T10:19:15.966Z,18.78
2022-10-02T10:21:51.467Z,18.72
2022-10-02T10:24:45.502Z,18.69
2022-10-02T10:27:33.222Z,18.75
2022-10-02T10:30:08.962Z,18.85
2022-10-02T10:33:13.166Z,18.86
2022-10-02T10:36:07.685Z,18.73
2022-10-02T10:38:49.706Z,18.76
2022-10-02T10:41:38.149Z,18.75
2022-10-02T10:44:52.564Z,18.86
2022-10-02T10:48:12.074Z,18.73
2022-10-02T10:51:16.892Z,18.79
2022-10-02T10:53:46.639Z,18.94
2022-10-02T10:56:34.904Z,19.10
2022-10-02T10:59:42.536Z,19.21
2022-10-02T11:02:27.578Z,19.11
2022-10-02T11:05:16.826Z,19.34
2022-10-02T11:07:44.576Z,19.41
2022-10-02T11:10:38.717Z,19.30
2022-10-02T11:13:23.904Z,19.25
2022-10-02T11:16:25.189Z,19.18
2022-10-02T11:19:17.935Z,19.30
2022-10-02T11:21:58.361Z,19.30
2022-10-02T11:24:37.131Z,19.41
2022-10-02T11:27:12.131Z,19.69
2022-10-02T11:30:10.191Z,19.57
2022-10-02T11:32:39.601Z,19.61
2022-10-02T11:35:12.366Z,19.69
2022-10-02T11:38:04.384Z,19.70
2022-10-02T11:40:41.861Z,19.62
2022-10-02T11:43:39.436Z,19.67
2022-10-02T11:46:36.604Z,19.75
2022-10-02T11:49:42.452Z,19.67
2022-10-02T11:52:48.443Z,19.61
2022-10-02T11:55:24.019Z,19.52
2022-10-02T11:58:05.249Z,19.27
2022-10-02T12:00:56.624Z,19.37
2022-10-02T12:03:45.104Z,19.64
2022-10-02T12:06:26.182Z,19.87
2022-10-02T12:09:09.660Z,19.93
2022-10-02T12:11:50.218Z,19.65
2022-10-02T12:14:43.913Z,19.70
2022-10-02T12:17:25.917Z,19.79
2022-10-02T12:20:58.884Z,19.78
2022-10-02T12:23:43.781Z,19.82
2022-10-02T12:26:54.239Z,19.78
2022-10-02T12:29:29.855Z,19.74
2022-10-02T12:32:19.152Z,19.61
2022-10-02T12:34:57.816Z,19.60
2022-10-02T12:37:27.588Z,19.27
2022-10-02T12:40:13.096Z,19.47
2022-10-02T12:42:54.406Z,19.61
2022-10-02T12:45:44.448Z,19.81
2022-10-02T12:48:26.355Z,19.61
2022-10-02T12:50:53.236Z,19.57
2022-10-02T12:53:49.940Z,19.54
2022-10-02T12:56:16.779Z,19.48
2022-10-02T12:59:14.700Z,19.34
2022-10-02T13:02:05.807Z,19.21
2022-10-02T13:05:05.473Z,19.13
2022-10-02T13:08:01.580Z,19.36
2022-10-02T13:10:38.124Z,19.38
2022-10-02T13:13:20.175Z,19.56
2022-10-02T13:16:28.100Z,19.67
2022-10-02T13:19:12.603Z,19.88
2022-10-02T13:22:11.085Z,19.84
2022-10-02T13:24:50.169Z,19.63
2022-10-02T13:27:31.903Z,19.57
2022-10-02T13:30:05.889Z,19.67
2022-10-02T13:32:54.507Z,19.69
2022-10-02T13:35:45.904Z,19.55
2022-10-02T13:38:30.846Z,19.40
2022-10-02T13:41:25.276Z,19.51
2022-10-02T13:44:07.788Z,19.48
2022-10-02T13:46:37.574Z,19.59
2022-10-02T13:49:22.561Z,19.55
2022-10-02T13:52:36.609Z,20.02
2022-10-02T13:55:21.885Z,20.28
2022-10-02T13:58:06.483Z,20.12
2022-10-02T14:00:56.456Z,20.15
2022-10-02T14:04:05.023Z,20.25
2022-10-02T14:06:38.873Z,20.22
2022-10-02T14:09:14.480Z,20.25
2022-10-02T14:11:44.108Z,20.24
2022-10-02T14:14:29.801Z,20.20
2022-10-02T14:17:35.178Z,20.11
2022-10-02T14:20:58.850Z,20.03
2022-10-02T14:23:50.417Z,20.25
2022-10-02T14:26:25.782Z,20.34
2022-10-02T14:28:55.181Z,20.40
2022-10-02T14:31:46.790Z,20.62
2022-10-02T14:34:36.938Z,20.71
2022-10-02T14:37:36.220Z,20.41
2022-10-02T14:40:13.075Z,20.68
2022-10-02T14:43:00.605Z,20.88
2022-10-02T14:45:52.013Z,20.95
2022-10-02T14:48:42.509Z,20.83
2022-10-02T14:51:18.134Z,20.74
2022-10-02T14:54:03.191Z,20.67
2022-10-02T14:56:32.885Z,20.80
2022-10-02T14:59:11.464Z,20.81
2022-10-02T15:01:45.497Z,20.87
2022-10-02T15:04:30.355Z,20.52
2022-10-02T15:07:03.996Z,19.92
2022-10-02T15:09:54.448Z,19.41
2022-10-02T15:12:36.524Z,18.92
2022-10-02T15:15:11.985Z,18.49
2022-10-02T15:18:17.391Z,18.17
2022-10-02T15:21:15.483Z,17.93
2022-10-02T15:23:50.745Z,17.85
2022-10-02T15:26:26.497Z,17.76
2022-10-02T15:29:07.356Z,17.60
2022-10-02T15:31:49.172Z,17.56
2022-10-02T15:34:24.755Z,17.45
2022-10-02T15:37:23.286Z,17.33
2022-10-02T15:39:53.162Z,17.21
2022-10-02T15:42:40.145Z,17.05
2022-10-02T15:45:27.866Z,16.97
2022-10-02T15:48:10.247Z,16.83
2022-10-02T15:50:58.124Z,16.73
2022-10-02T15:53:43.199Z,16.67
2022-10-02T15:56:28.113Z,16.59
2022-10-02T15:59:16.636Z,16.51
2022-10-02T16:02:01.425Z,16.43
2022-10-02T16:04:49.759Z,16.36
2022-10-02T16:07:45.300Z,16.28
2022-10-02T16:10:26.825Z,16.19
2022-10-02T16:13:12.638Z,16.15
2022-10-02T16:15:47.655Z,16.08
2022-10-02T16:18:20.386Z,16.05
2022-10-02T16:21:22.764Z,15.98
2022-10-02T16:24:12.599Z,15.90
2022-10-02T16:27:07.603Z,15.82
2022-10-02T16:29:59.620Z,15.77
2022-10-02T16:32:37.230Z,15.76
2022-10-02T16:35:20.144Z,15.70
2022-10-02T16:37:55.200Z,15.64
2022-10-02T16:40:27.068Z,15.61
2022-10-02T16:43:12.964Z,15.52
2022-10-02T16:45:49.010Z,15.46
2022-10-02T16:48:22.005Z,15.37
2022-10-02T16:51:10.526Z,15.33
2022-10-02T16:54:14.357Z,15.31
2022-10-02T16:56:41.180Z,15.32
2022-10-02T16:59:19.035Z,15.23
2022-10-02T17:02:16.015Z,15.22
2022-10-02T17:04:50.274Z,15.18
2022-10-02T17:07:41.720Z,15.24
2022-10-02T17:10:22.124Z,15.27
2022-10-02T17:13:07.453Z,15.30
2022-10-02T17:15:51.707Z,15.31
2022-10-02T17:18:24.695Z,15.33
2022-10-02T17:21:01.314Z,15.34
2022-10-02T17:23:34.034Z,15.39
2022-10-02T17:26:31.906Z,15.42
2022-10-02T17:29:12.584Z,15.40
2022-10-02T17:31:53.356Z,15.40
2022-10-02T17:34:27.973Z,15.34
2022-10-02T17:37:07.179Z,15.31
2022-10-02T17:39:43.122Z,15.28
2022-10-02T17:42:28.678Z,15.24
2022-10-02T17:45:04.868Z,15.17
2022-10-02T17:47:54.559Z,15.21
2022-10-02T17:51:00.082Z,15.16
2022-10-02T17:54:04.569Z,15.10
2022-10-02T17:56:50.871Z,15.14
2022-10-02T17:59:51.473Z,15.13
2022-10-02T18:02:34.084Z,15.15
2022-10-02T18:05:19.213Z,15.15
2022-10-02T18:08:05.117Z,15.18
2022-10-02T18:11:30.590Z,15.23
2022-10-02T18:14:13.685Z,15.19
2022-10-02T18:17:21.146Z,15.31
2022-10-02T18:20:10.581Z,15.33
2022-10-02T18:22:58.652Z,15.39
2022-10-02T18:25:31.665Z,15.39
2022-10-02T18:28:11.443Z,15.39
2022-10-02T18:31:03.045Z,15.36
2022-10-02T18:34:06.818Z,15.32
2022-10-02T18:36:50.787Z,15.24
2022-10-02T18:39:37.253Z,15.16
2022-10-02T18:42:30.041Z,15.13
2022-10-02T18:45:40.754Z,15.06
2022-10-02T18:48:41.948Z,15.02
2022-10-02T18:51:34.580Z,14.99
2022-10-02T18:54:23.071Z,14.95
2022-10-02T18:57:07.902Z,14.90
2022-10-02T19:00:02.627Z,14.87
2022-10-02T19:03:20.054Z,14.84
2022-10-02T19:06:06.081Z,14.83
2022-10-02T19:09:05.691Z,14.78
2022-10-02T19:11:36.313Z,14.73
2022-10-02T19:14:15.033Z,14.69
2022-10-02T19:16:59.330Z,14.68
2022-10-02T19:19:28.483Z,14.64
2022-10-02T19:22:13.002Z,14.56
2022-10-02T19:24:42.475Z,14.51
2022-10-02T19:27:19.371Z,14.48
2022-10-02T19:29:54.546Z,14.40
2022-10-02T19:32:30.785Z,14.36
2022-10-02T19:35:08.474Z,14.30
2022-10-02T19:37:41.730Z,14.24
2022-10-02T19:40:15.969Z,14.20
2022-10-02T19:42:55.607Z,14.17
2022-10-02T19:45:27.004Z,14.11
2022-10-02T19:47:59.874Z,14.09
2022-10-02T19:50:37.959Z,14.06
2022-10-02T19:53:16.708Z,13.98
2022-10-02T19:55:44.578Z,13.99
2022-10-02T19:58:20.630Z,13.94
2022-10-02T20:00:50.914Z,13.87
2022-10-02T20:03:21.215Z,13.84
2022-10-02T20:05:53.146Z,13.78
2022-10-02T20:08:25.893Z,13.70
2022-10-02T20:11:01.883Z,13.61
2022-10-02T20:13:44.677Z,13.56
2022-10-02T20:16:41.933Z,13.49
2022-10-02T20:19:18.285Z,13.48
2022-10-02T20:21:49.724Z,13.46
2022-10-02T20:24:58.535Z,13.45
2022-10-02T20:27:34.979Z,13.43
2022-10-02T20:30:11.268Z,13.43
2022-10-02T20:32:45.412Z,13.42
2022-10-02T20:35:45.363Z,13.36
2022-10-02T20:38:47.034Z,13.32
2022-10-02T20:41:25.618Z,13.19
2022-10-02T20:44:02.330Z,13.06
2022-10-02T20:46:47.393Z,13.03
2022-10-02T20:49:23.066Z,12.99
2022-10-02T20:52:27.135Z,12.94
2022-10-02T20:55:07.342Z,12.90
2022-10-02T20:58:09.550Z,12.86
2022-10-02T21:01:04.332Z,12.79
2022-10-02T21:03:40.939Z,12.74
2022-10-02T21:06:22.672Z,12.69
2022-10-02T21:09:09.160Z,12.69
2022-10-02T21:11:54.499Z,12.67
2022-10-02T21:14:30.008Z,12.66
2022-10-02T21:17:30.734Z,12.62
2022-10-02T21:20:06.560Z,12.55
2022-10-02T21:22:59.345Z,12.49
2022-10-02T21:26:04.064Z,12.43
2022-10-02T21:28:49.041Z,12.36
2022-10-02T21:31:56.571Z,12.23
2022-10-02T21:34:35.302Z,12.20
2022-10-02T21:37:13.154Z,12.14
2022-10-02T21:39:55.261Z,12.09
2022-10-02T21:42:42.028Z,12.04
2022-10-02T21:46:03.214Z,11.97
2022-10-02T21:48:56.407Z,11.90
2022-10-02T21:51:41.642Z,11.92
2022-10-02T21:54:35.876Z,11.91
2022-10-02T21:57:05.271Z,11.92
2022-10-02T22:00:07.256Z,11.86
2022-10-02T22:03:19.118Z,11.76
2022-10-02T22:06:15.020Z,11.55
2022-10-02T22:08:44.583Z,11.44
2022-10-02T22:11:24.937Z,11.42
2022-10-02T22:13:57.990Z,11.37
2022-10-02T22:16:36.963Z,11.37
2022-10-02T22:19:25.377Z,11.35
2022-10-02T22:22:13.205Z,11.32
2022-10-02T22:24:48.862Z,11.33
2022-10-02T22:27:37.289Z,11.31
2022-10-02T22:30:05.275Z,11.18
2022-10-02T22:33:13.318Z,11.09
2022-10-02T22:36:04.842Z,10.90
2022-10-02T22:38:31.579Z,10.82
2022-10-02T22:41:02.585Z,10.82
2022-10-02T22:43:32.164Z,10.76
2022-10-02T22:46:16.376Z,10.73
2022-10-02T22:48:49.264Z,10.68
2022-10-02T22:51:25.274Z,10.66
2022-10-02T22:54:14.295Z,10.60
2022-10-02T22:56:51.449Z,10.57
2022-10-02T22:59:38.067Z,10.61
2022-10-02T23:02:35.119Z,10.68
2022-10-02T23:05:17.403Z,10.69
2022-10-02T23:07:56.063Z,10.66
2022-10-02T23:10:37.958Z,10.75
2022-10-02T23:13:11.739Z,10.71
2022-10-02T23:16:04.163Z,10.71
2022-10-02T23:18:40.034Z,10.69
2022-10-02T23:21:25.231Z,10.71
2022-10-02T23:24:02.561Z,10.68
2022-10-02T23:26:41.540Z,10.73
2022-10-02T23:29:26.653Z,10.69
2022-10-02T23:32:24.355Z,10.60
2022-10-02T23:34:54.265Z,10.63
2022-10-02T23:37:53.181Z,10.57
2022-10-02T23:40:47.676Z,10.48
2022-10-02T23:43:38.708Z,10.45
2022-10-02T23:46:18.100Z,10.47
2022-10-02T23:48:45.683Z,10.46
2022-10-02T23:51:32.530Z,10.48
2022-10-02T23:54:21.133Z,10.50
2022-10-02T23:57:14.954Z,10.43
2022-10-02T23:59:58.602Z,10.45
